Time;durP1;ratioP1;P1;durP2;ratioP2;P2;SDS_P1;SDS_P2;PMS_P1;PMS_P2;Temp;Humidity;BMP_temperature;BMP_pressure;BME280_temperature;BME280_humidity;BME280_pressure;Samples;Min_cycle;Max_cycle;Signal;HPM_P1;HPM_P2
2022/04/27 00:00:28;;;;;;;10.53;7.60;;;;;;;6.66;100.00;96440.94;5029498;28;20451;-83
2022/04/27 00:02:58;;;;;;;10.13;7.40;;;;;;;6.67;100.00;96439.13;5013374;28;20041;-82
2022/04/27 00:05:25;;;;;;;11.30;7.97;;;;;;;6.62;100.00;96442.16;5025938;28;20041;-83
2022/04/27 00:07:50;;;;;;;10.03;7.47;;;;;;;6.59;100.00;96437.19;5009008;28;20506;-83
2022/04/27 00:10:19;;;;;;;10.53;7.33;;;;;;;6.58;100.00;96438.16;5028184;28;20045;-83
2022/04/27 00:12:45;;;;;;;11.80;7.93;;;;;;;6.63;100.00;96443.81;5027041;28;20025;-83
2022/04/27 00:15:12;;;;;;;10.07;7.33;;;;;;;6.61;100.00;96436.09;5027123;28;20037;-82
2022/04/27 00:17:38;;;;;;;11.83;8.30;;;;;;;6.58;100.00;96440.75;5027428;28;20026;-82
2022/04/27 00:20:05;;;;;;;10.37;7.40;;;;;;;6.54;100.00;96440.19;5011070;28;20506;-82
2022/04/27 00:22:31;;;;;;;12.60;8.20;;;;;;;6.55;100.00;96438.41;5007754;28;20037;-83
2022/04/27 00:25:01;;;;;;;11.93;8.70;;;;;;;6.54;100.00;96439.38;5008766;28;20132;-83
2022/04/27 00:27:28;;;;;;;11.93;7.93;;;;;;;6.56;100.00;96437.44;5028354;28;20730;-83
2022/04/27 00:29:54;;;;;;;12.93;8.50;;;;;;;6.52;100.00;96436.06;5027774;28;20041;-82
2022/04/27 00:32:20;;;;;;;10.70;8.00;;;;;;;6.49;100.00;96431.91;5029257;28;20108;-82
2022/04/27 00:34:45;;;;;;;11.47;8.27;;;;;;;6.56;100.00;96440.06;5029704;28;20124;-81
2022/04/27 00:37:11;;;;;;;12.03;8.43;;;;;;;6.49;100.00;96436.31;5031076;28;20030;-83
2022/04/27 00:39:37;;;;;;;14.87;8.30;;;;;;;6.49;100.00;96444.16;5029684;28;20472;-83
2022/04/27 00:42:17;;;;;;;10.93;7.80;;;;;;;6.47;100.00;96438.22;5027983;28;20052;-82
2022/04/27 00:44:44;;;;;;;11.77;9.17;;;;;;;6.46;100.00;96444.41;5027276;28;20506;-83
2022/04/27 00:47:10;;;;;;;9.97;7.73;;;;;;;6.43;100.00;96448.09;5029490;28;20029;-83
2022/04/27 00:49:40;;;;;;;11.40;8.63;;;;;;;6.38;100.00;96448.47;5026367;28;20083;-82
2022/04/27 00:52:07;;;;;;;12.37;8.90;;;;;;;6.37;100.00;96445.97;5024391;28;20098;-80
2022/04/27 00:54:34;;;;;;;11.37;8.33;;;;;;;6.34;100.00;96443.66;5012770;28;20037;-82
2022/04/27 00:57:00;;;;;;;10.53;7.97;;;;;;;6.38;100.00;96452.88;5030439;28;20032;-83
2022/04/27 00:59:26;;;;;;;11.53;8.50;;;;;;;6.34;100.00;96452.31;5005466;28;20029;-82
2022/04/27 01:01:52;;;;;;;11.70;8.53;;;;;;;6.31;100.00;96452.56;5006305;28;20033;-83
2022/04/27 01:04:17;;;;;;;10.97;7.63;;;;;;;6.30;100.00;96452.69;5022982;28;20026;-82
2022/04/27 01:06:44;;;;;;;11.80;8.33;;;;;;;6.26;100.00;96465.16;5009515;28;20120;-83
2022/04/27 01:09:11;;;;;;;10.87;8.07;;;;;;;6.24;100.00;96466.25;5016005;28;20030;-83
2022/04/27 01:11:36;;;;;;;11.43;7.93;;;;;;;6.30;100.00;96463.13;5029175;28;20030;-83
2022/04/27 01:14:03;;;;;;;11.70;7.77;;;;;;;6.25;100.00;96460.91;5031405;28;20037;-82
2022/04/27 01:16:28;;;;;;;12.17;9.00;;;;;;;6.23;100.00;96462.81;5031143;28;20033;-83
2022/04/27 01:18:54;;;;;;;11.47;8.07;;;;;;;6.21;100.00;96464.72;5012763;28;20041;-83
2022/04/27 01:21:22;;;;;;;14.10;7.70;;;;;;;6.22;100.00;96468.16;5031489;28;20120;-83
2022/04/27 01:23:56;;;;;;;11.10;7.90;;;;;;;6.21;100.00;96462.13;5037819;28;20109;-82
2022/04/27 01:26:22;;;;;;;11.77;8.53;;;;;;;6.25;100.00;96467.91;5012032;28;20030;-83
2022/04/27 01:28:47;;;;;;;10.90;8.13;;;;;;;6.32;100.00;96459.44;5031742;28;20091;-82
2022/04/27 01:31:14;;;;;;;10.50;7.90;;;;;;;6.23;100.00;96456.75;5033063;28;20056;-81
2022/04/27 01:33:40;;;;;;;11.33;8.27;;;;;;;6.22;100.00;96463.75;5032384;28;20049;-83
2022/04/27 01:36:07;;;;;;;10.57;7.60;;;;;;;6.20;100.00;96465.66;5035668;28;20135;-83
2022/04/27 01:38:38;;;;;;;11.93;7.43;;;;;;;6.17;100.00;96463.34;5019862;28;20154;-83
2022/04/27 01:41:05;;;;;;;10.23;7.17;;;;;;;6.11;100.00;96469.06;5022265;28;20251;-82
2022/04/27 01:43:31;;;;;;;11.87;7.10;;;;;;;6.11;100.00;96463.84;5039256;28;20116;-82
2022/04/27 01:45:57;;;;;;;13.17;8.77;;;;;;;6.06;100.00;96465.97;5031984;28;20026;-81
2022/04/27 01:48:23;;;;;;;10.83;7.87;;;;;;;6.03;100.00;96471.44;5063690;28;20052;-81
2022/04/27 01:50:49;;;;;;;10.47;7.13;;;;;;;6.01;100.00;96473.38;5024906;28;20013;-83
2022/04/27 01:55:59;;;;;;;9.40;6.80;;;;;;;5.89;100.00;96480.38;5029621;28;20122;-83
2022/04/27 01:58:29;;;;;;;11.53;7.40;;;;;;;5.95;100.00;96474.69;5016645;28;20703;-82
2022/04/27 02:00:55;;;;;;;11.70;7.37;;;;;;;5.85;100.00;96473.75;5011278;28;20044;-82
2022/04/27 02:03:22;;;;;;;11.27;7.70;;;;;;;5.82;100.00;96474.81;5026413;28;20029;-82
2022/04/27 02:05:48;;;;;;;12.97;8.00;;;;;;;5.77;100.00;96479.59;5026727;28;20025;-82
2022/04/27 02:08:15;;;;;;;11.53;7.67;;;;;;;5.77;100.00;96478.75;5011668;28;20048;-82
2022/04/27 02:10:41;;;;;;;11.70;8.20;;;;;;;5.75;100.00;96483.28;5013878;28;20033;-82
2022/04/27 02:13:08;;;;;;;11.30;7.70;;;;;;;5.76;100.00;96479.69;5024710;28;20056;-83
2022/04/27 02:15:35;;;;;;;11.77;7.13;;;;;;;5.73;100.00;96475.56;5005023;28;20033;-82
2022/04/27 02:18:20;;;;;;;11.87;7.97;;;;;;;5.62;100.00;96476.41;5018326;28;20491;-82
2022/04/27 02:20:46;;;;;;;11.37;8.03;;;;;;;5.54;100.00;96475.38;5031801;28;20030;-82
2022/04/27 02:23:13;;;;;;;11.50;8.00;;;;;;;5.48;100.00;96478.47;5015331;28;20029;-83
2022/04/27 02:25:39;;;;;;;12.90;8.63;;;;;;;5.50;100.00;96487.84;5031114;28;20044;-83
2022/04/27 02:28:08;;;;;;;11.87;7.83;;;;;;;5.46;100.00;96493.41;5031143;28;20041;-82
2022/04/27 02:30:34;;;;;;;11.67;7.93;;;;;;;5.48;100.00;96483.69;5031725;28;20079;-81
2022/04/27 02:32:59;;;;;;;13.93;8.67;;;;;;;5.46;100.00;96490.81;5031704;28;20465;-83
2022/04/27 02:35:25;;;;;;;13.43;9.07;;;;;;;5.50;100.00;96489.59;5032462;28;20077;-82
2022/04/27 02:37:51;;;;;;;14.50;10.33;;;;;;;5.53;100.00;96490.19;5029633;28;20029;-83
2022/04/27 02:40:17;;;;;;;13.13;9.57;;;;;;;5.52;100.00;96487.72;5012070;28;20556;-82
2022/04/27 02:42:43;;;;;;;13.27;9.57;;;;;;;5.53;100.00;96490.19;5030542;28;20040;-82
2022/04/27 02:45:11;;;;;;;14.17;9.03;;;;;;;5.53;100.00;96487.56;5022970;28;20040;-82
2022/04/27 02:47:37;;;;;;;15.57;11.10;;;;;;;5.59;100.00;96499.31;5029004;28;20406;-83
2022/04/27 02:52:59;;;;;;;15.40;10.30;;;;;;;5.60;100.00;96504.44;5031317;28;20029;-82
2022/04/27 02:55:35;;;;;;;16.23;10.60;;;;;;;5.57;100.00;96502.06;5016334;28;20037;-82
2022/04/27 02:58:01;;;;;;;14.90;11.13;;;;;;;5.63;100.00;96509.41;5022830;28;20037;-82
2022/04/27 03:00:30;;;;;;;14.87;10.20;;;;;;;5.58;100.00;96514.13;5021642;28;20367;-82
2022/04/27 03:02:57;;;;;;;14.37;9.83;;;;;;;5.64;100.00;96507.63;5029907;28;20038;-82
2022/04/27 03:05:24;;;;;;;17.60;11.20;;;;;;;5.61;100.00;96519.13;5012784;28;20091;-83
2022/04/27 03:07:49;;;;;;;15.17;10.43;;;;;;;5.63;100.00;96509.41;5026483;28;20460;-83
2022/04/27 03:10:16;;;;;;;16.83;10.70;;;;;;;5.65;100.00;96512.69;5031822;28;20024;-83
2022/04/27 03:12:42;;;;;;;16.17;11.47;;;;;;;5.67;100.00;96525.66;5015019;28;20128;-82
2022/04/27 03:15:09;;;;;;;16.70;11.20;;;;;;;5.71;100.00;96514.00;5031095;28;20120;-83
2022/04/27 03:17:35;;;;;;;17.17;10.77;;;;;;;5.65;100.00;96530.13;5015660;28;20048;-81
2022/04/27 03:20:04;;;;;;;17.07;12.03;;;;;;;5.64;100.00;96523.28;5032092;28;20037;-82
2022/04/27 03:22:30;;;;;;;17.17;11.73;;;;;;;5.72;100.00;96520.88;5023672;28;20031;-83
2022/04/27 03:24:56;;;;;;;22.23;15.77;;;;;;;5.70;100.00;96516.72;5033533;28;20037;-82
2022/04/27 03:27:31;;;;;;;24.60;15.90;;;;;;;5.70;100.00;96516.72;5032264;28;20025;-82
2022/04/27 03:29:56;;;;;;;18.40;13.33;;;;;;;5.71;100.00;96519.22;5031290;28;20032;-83
2022/04/27 03:32:23;;;;;;;18.60;12.90;;;;;;;5.68;100.00;96517.69;5010945;28;20431;-82
2022/04/27 03:34:53;;;;;;;19.03;13.83;;;;;;;5.73;100.00;96519.09;5015608;28;20033;-83
2022/04/27 03:37:22;;;;;;;19.50;13.23;;;;;;;5.71;100.00;96519.22;5013960;28;20036;-82
2022/04/27 03:39:50;;;;;;;22.93;15.03;;;;;;;5.81;100.00;96520.16;5009484;28;20029;-83
2022/04/27 03:42:20;;;;;;;23.27;16.20;;;;;;;5.80;100.00;96521.09;5031432;28;20390;-82
2022/04/27 03:44:52;;;;;;;23.07;15.23;;;;;;;5.74;100.00;96529.41;5032294;28;20418;-82
2022/04/27 03:47:21;;;;;;;22.03;13.93;;;;;;;5.78;100.00;96525.59;5015345;28;20083;-83
2022/04/27 03:49:47;;;;;;;24.07;16.17;;;;;;;5.74;100.00;96526.81;5016921;28;20029;-83
2022/04/27 03:52:13;;;;;;;24.20;16.23;;;;;;;5.78;100.00;96530.00;5025572;28;20038;-82
2022/04/27 03:54:40;;;;;;;23.37;15.80;;;;;;;5.85;100.00;96534.59;5014750;28;20030;-83
2022/04/27 03:57:06;;;;;;;26.67;16.80;;;;;;;5.77;100.00;96530.94;5022383;28;20106;-83
2022/04/27 03:59:31;;;;;;;25.20;17.07;;;;;;;5.81;100.00;96540.19;5013541;28;20041;-82
2022/04/27 04:01:57;;;;;;;27.33;17.57;;;;;;;5.89;100.00;96543.84;5019807;28;20030;-82
2022/04/27 04:04:24;;;;;;;25.87;16.60;;;;;;;5.88;100.00;96541.38;5011610;28;20053;-82
2022/04/27 04:06:50;;;;;;;25.93;17.00;;;;;;;5.78;100.00;96546.47;5032484;28;20111;-82
2022/04/27 04:09:17;;;;;;;29.47;19.77;;;;;;;5.76;100.00;96548.38;5014639;28;20050;-81
2022/04/27 04:11:44;;;;;;;24.30;16.27;;;;;;;5.80;100.00;96546.34;5035429;28;20037;-80
2022/04/27 04:14:10;;;;;;;25.77;17.23;;;;;;;5.86;100.00;96554.53;5039022;28;20041;-81
2022/04/27 04:16:48;;;;;;;22.13;15.80;;;;;;;5.83;100.00;96559.97;5039738;28;20064;-81
2022/04/27 04:19:32;;;;;;;23.47;15.60;;;;;;;5.86;100.00;96559.75;5023680;28;20044;-82
2022/04/27 04:22:24;;;;;;;23.23;15.50;;;;;;;5.89;100.00;96554.28;5022959;28;20142;-80
2022/04/27 04:30:42;;;;;;;25.30;16.43;;;;;;;6.00;100.00;96571.75;5034566;28;20486;-79
2022/04/27 04:33:27;;;;;;;25.10;16.10;;;;;;;5.93;100.00;96572.34;5036657;28;20028;-80
2022/04/27 04:35:56;;;;;;;24.17;16.80;;;;;;;5.88;100.00;96580.50;5034868;28;20042;-78
2022/04/27 04:38:23;;;;;;;22.20;15.83;;;;;;;5.93;100.00;96580.16;5030605;28;20053;-79
2022/04/27 04:40:52;;;;;;;24.70;15.50;;;;;;;6.00;100.00;96576.13;5016958;28;20449;-79
2022/04/27 04:43:20;;;;;;;25.27;16.43;;;;;;;6.09;100.00;96585.84;5034559;28;20103;-80
2022/04/27 04:45:46;;;;;;;24.60;16.10;;;;;;;6.16;100.00;96592.22;5033727;28;20478;-80
2022/04/27 04:48:29;;;;;;;25.33;16.53;;;;;;;6.11;100.00;96592.59;5034856;28;20128;-79
2022/04/27 04:51:20;;;;;;;25.63;15.83;;;;;;;6.20;100.00;96598.03;5013208;28;20037;-80
2022/04/27 04:53:54;;;;;;;25.40;15.52;;;;;;;6.12;100.00;96596.84;5021080;28;20041;-80
2022/04/27 04:56:27;;;;;;;21.80;15.07;;;;;;;6.13;100.00;96610.75;5035682;28;20041;-80
2022/04/27 04:59:11;;;;;;;19.97;13.83;;;;;;;6.13;100.00;96613.34;5036678;28;20052;-78
2022/04/27 05:01:55;;;;;;;38.80;23.27;;;;;;;6.19;100.00;96612.88;5026326;28;20041;-80
2022/04/27 05:04:35;;;;;;;27.60;16.53;;;;;;;6.28;100.00;96606.09;5000711;28;20046;-80
2022/04/27 05:07:26;;;;;;;24.03;16.33;;;;;;;6.24;100.00;96608.13;5006426;28;20034;-80
2022/04/27 05:10:18;;;;;;;25.50;16.87;;;;;;;6.31;100.00;96606.66;5001020;28;20034;-78
2022/04/27 05:13:04;;;;;;;23.30;15.53;;;;;;;6.37;100.00;96602.72;5015959;28;20060;-79
2022/04/27 05:15:49;;;;;;;24.50;16.73;;;;;;;6.34;100.00;96601.19;5015524;28;20879;-78
2022/04/27 05:18:35;;;;;;;26.30;15.67;;;;;;;6.34;100.00;96605.59;5029218;28;20124;-80
2022/04/27 05:21:33;;;;;;;23.00;15.83;;;;;;;6.36;100.00;96614.13;4992975;28;20092;-80
2022/04/27 05:24:25;;;;;;;24.50;15.73;;;;;;;6.30;100.00;96615.44;5011855;28;20123;-80
2022/04/27 05:27:24;;;;;;;24.53;17.23;;;;;;;6.42;100.00;96618.03;5002012;28;20046;-80
2022/04/27 05:33:07;;;;;;;24.83;15.53;;;;;;;6.46;100.00;96619.44;5035341;28;20679;-81
2022/04/27 05:35:59;;;;;;;24.50;15.53;;;;;;;6.55;100.00;96624.75;5019408;28;20037;-80
2022/04/27 05:38:44;;;;;;;23.10;15.03;;;;;;;6.59;100.00;96630.56;5023430;28;20047;-79
2022/04/27 05:41:28;;;;;;;21.80;14.50;;;;;;;6.58;100.00;96627.13;5019002;28;20060;-80
2022/04/27 05:44:13;;;;;;;23.30;16.40;;;;;;;6.62;100.00;96632.91;5033154;28;20071;-80
2022/04/27 05:46:58;;;;;;;24.67;16.43;;;;;;;6.70;100.00;96635.72;5033285;28;20033;-80
2022/04/27 05:49:53;;;;;;;23.93;15.13;;;;;;;6.77;100.00;96636.06;5011238;28;20045;-80
2022/04/27 05:52:56;;;;;;;22.50;15.07;;;;;;;6.66;100.00;96636.09;5046903;28;20040;-80
2022/04/27 05:55:43;;;;;;;21.50;15.10;;;;;;;6.89;100.00;96629.00;5033618;28;20039;-80
2022/04/27 05:58:30;;;;;;;22.97;14.73;;;;;;;7.07;100.00;96636.13;5033043;28;20601;-80
2022/04/27 06:01:14;;;;;;;22.17;15.23;;;;;;;6.98;100.00;96643.94;5034192;28;20041;-80
2022/04/27 06:03:53;;;;;;;23.90;15.30;;;;;;;7.09;100.00;96644.69;5032760;28;20041;-80
2022/04/27 06:06:21;;;;;;;20.03;13.50;;;;;;;7.02;100.00;96647.94;5017126;28;20025;-79
2022/04/27 06:08:48;;;;;;;21.97;15.00;;;;;;;7.00;100.00;96655.06;5032940;28;20029;-80
2022/04/27 06:11:19;;;;;;;21.90;14.67;;;;;;;7.15;100.00;96653.81;5018725;28;20087;-80
2022/04/27 06:14:08;;;;;;;20.93;13.90;;;;;;;7.18;100.00;96658.81;5026716;28;20041;-80
2022/04/27 06:16:43;;;;;;;19.40;13.90;;;;;;;7.19;100.00;96662.25;5017473;28;20464;-80
2022/04/27 06:19:14;;;;;;;19.87;14.57;;;;;;;7.24;100.00;96668.75;5017015;28;20061;-79
2022/04/27 06:21:39;;;;;;;20.43;14.87;;;;;;;7.30;100.00;96670.84;5032742;28;20087;-81
2022/04/27 06:24:07;;;;;;;21.57;13.73;;;;;;;7.41;100.00;96669.09;5016819;28;20044;-79
2022/04/27 06:26:34;;;;;;;21.20;14.80;;;;;;;7.31;100.00;96680.38;5016958;28;20040;-79
2022/04/27 06:29:00;;;;;;;18.30;13.03;;;;;;;7.24;100.00;96679.22;5012506;28;20053;-79
2022/04/27 06:31:27;;;;;;;19.00;12.67;;;;;;;7.26;100.00;96682.53;5008314;28;20120;-80
2022/04/27 06:33:57;;;;;;;16.67;11.73;;;;;;;7.25;100.00;96686.09;5033088;28;20026;-80
2022/04/27 06:36:23;;;;;;;18.53;12.63;;;;;;;7.27;100.00;96689.41;5016397;28;20408;-80
2022/04/27 06:38:50;;;;;;;19.37;12.13;;;;;;;7.20;100.00;96690.88;5015718;28;20037;-80
2022/04/27 06:41:27;;;;;;;15.43;11.27;;;;;;;7.38;100.00;96688.53;5017735;28;20056;-80
2022/04/27 06:44:16;;;;;;;16.00;10.83;;;;;;;7.33;100.00;96699.34;5033668;28;20120;-80
2022/04/27 06:47:00;;;;;;;15.60;9.73;;;;;;;7.51;100.00;96696.16;5035101;28;20128;-82
2022/04/27 06:49:43;;;;;;;13.00;9.53;;;;;;;7.56;100.00;96704.47;5033384;28;20091;-80
2022/04/27 06:52:45;;;;;;;14.40;10.53;;;;;;;7.68;100.00;96694.72;4990334;28;20715;-80
2022/04/27 06:55:30;;;;;;;13.17;8.43;;;;;;;7.43;100.00;96695.97;5034542;28;20414;-80
2022/04/27 06:58:14;;;;;;;13.80;9.33;;;;;;;7.64;100.00;96702.03;5035197;28;20056;-79
2022/04/27 07:00:41;;;;;;;13.93;9.90;;;;;;;7.72;100.00;96704.84;5017492;28;20071;-80
2022/04/27 07:03:08;;;;;;;14.17;9.23;;;;;;;7.67;100.00;96712.25;5017251;28;20029;-81
2022/04/27 07:05:34;;;;;;;12.93;8.93;;;;;;;7.50;100.00;96713.66;5034498;28;20049;-80
2022/04/27 07:08:01;;;;;;;13.90;9.00;;;;;;;7.69;100.00;96709.50;5032773;28;20394;-79
2022/04/27 07:10:26;;;;;;;13.63;8.17;;;;;;;7.62;100.00;96718.84;5016167;28;20083;-80
2022/04/27 07:12:52;;;;;;;11.73;7.90;;;;;;;7.53;100.00;96712.56;5034251;28;20425;-80
2022/04/27 07:15:18;;;;;;;11.80;8.00;;;;;;;7.61;100.00;96719.78;5016481;28;20095;-80
2022/04/27 07:17:44;;;;;;;12.27;8.43;;;;;;;7.51;100.00;96724.94;5032812;28;20113;-80
2022/04/27 07:20:10;;;;;;;11.37;8.60;;;;;;;7.69;100.00;96720.81;5033210;28;20033;-80
2022/04/27 07:22:36;;;;;;;12.63;9.10;;;;;;;7.68;100.00;96723.53;5017507;28;20040;-80
2022/04/27 07:25:02;;;;;;;11.60;8.83;;;;;;;7.73;100.00;96722.19;5035101;28;20033;-80
2022/04/27 07:27:31;;;;;;;11.47;8.33;;;;;;;7.83;100.00;96722.25;5034059;28;20041;-79
2022/04/27 07:29:57;;;;;;;10.27;7.37;;;;;;;8.10;100.00;96726.91;5018375;28;20036;-80
2022/04/27 07:32:23;;;;;;;9.87;6.63;;;;;;;8.06;100.00;96725.53;5018501;28;20056;-80
2022/04/27 07:34:51;;;;;;;10.40;7.10;;;;;;;8.03;100.00;96728.41;5035402;28;20037;-80
2022/04/27 07:37:17;;;;;;;9.23;6.63;;;;;;;8.01;100.00;96736.41;5033768;28;20112;-79
2022/04/27 07:39:43;;;;;;;10.13;6.93;;;;;;;8.05;100.00;96736.97;5049596;28;20037;-80
2022/04/27 07:42:09;;;;;;;9.73;6.50;;;;;;;8.04;100.00;96746.59;5031787;28;20039;-79
2022/04/27 07:44:35;;;;;;;8.47;5.90;;;;;;;8.01;100.00;96746.03;5015736;28;20041;-79
2022/04/27 07:47:01;;;;;;;9.50;6.80;;;;;;;7.90;100.00;96743.50;5016185;28;20055;-79
2022/04/27 07:49:27;;;;;;;10.80;7.47;;;;;;;7.85;100.00;96753.56;5032512;28;20048;-79
2022/04/27 07:51:53;;;;;;;8.23;6.17;;;;;;;8.15;100.00;96755.31;5032109;28;20036;-79
2022/04/27 07:54:19;;;;;;;9.47;6.33;;;;;;;8.21;100.00;96753.00;5015178;28;20112;-79
2022/04/27 07:56:47;;;;;;;11.27;7.27;;;;;;;8.17;100.00;96766.53;5032356;28;20057;-79
2022/04/27 07:59:13;;;;;;;9.93;6.90;;;;;;;8.16;100.00;96767.50;5016030;28;20029;-79
2022/04/27 08:01:39;;;;;;;10.47;6.43;;;;;;;8.11;100.00;96775.72;5015393;28;20040;-79
2022/04/27 08:04:04;;;;;;;9.03;6.37;;;;;;;8.27;100.00;96770.84;5015554;28;20043;-80
2022/04/27 08:06:30;;;;;;;9.77;6.37;;;;;;;8.15;100.00;96771.03;5032068;28;20123;-80
2022/04/27 08:08:56;;;;;;;9.60;6.60;;;;;;;8.25;100.00;96772.78;5013773;28;20040;-80
2022/04/27 08:11:22;;;;;;;11.33;7.20;;;;;;;8.15;100.00;96778.91;5015397;28;20034;-79
2022/04/27 08:13:48;;;;;;;8.63;5.97;;;;;;;8.34;100.00;96778.19;5032262;28;20040;-80
2022/04/27 08:16:13;;;;;;;9.30;6.80;;;;;;;8.40;100.00;96782.94;5016749;28;20033;-78
2022/04/27 08:18:39;;;;;;;10.70;7.37;;;;;;;8.26;100.00;96792.75;5019877;28;20112;-80
2022/04/27 08:21:14;;;;;;;9.77;6.60;;;;;;;8.42;100.00;96786.25;5019716;28;20037;-80
2022/04/27 08:23:41;;;;;;;10.47;6.40;;;;;;;8.40;100.00;96788.16;5036661;28;20029;-79
2022/04/27 08:26:08;;;;;;;8.97;6.30;;;;;;;8.56;100.00;96793.75;5036411;28;20068;-79
2022/04/27 08:28:37;;;;;;;9.40;6.80;;;;;;;8.59;100.00;96798.72;5020181;28;20044;-80
2022/04/27 08:31:03;;;;;;;10.07;5.87;;;;;;;8.55;100.00;96797.34;5019758;28;20494;-79
2022/04/27 08:33:28;;;;;;;8.77;6.47;;;;;;;8.69;100.00;96798.75;5019197;28;20028;-80
2022/04/27 08:35:55;;;;;;;9.13;6.33;;;;;;;8.94;100.00;96792.19;5035855;28;20060;-79
2022/04/27 08:38:21;;;;;;;9.73;7.60;;;;;;;9.09;100.00;96798.72;5035285;28;20030;-79
2022/04/27 08:40:46;;;;;;;11.50;8.50;;;;;;;9.25;100.00;96795.53;5034943;28;20042;-79
2022/04/27 08:43:13;;;;;;;9.50;7.13;;;;;;;9.55;100.00;96799.81;5034825;28;20064;-79
2022/04/27 08:45:43;;;;;;;10.13;7.50;;;;;;;9.51;100.00;96806.31;5019056;28;20021;-79
2022/04/27 08:48:12;;;;;;;10.40;7.13;;;;;;;9.47;100.00;96812.81;5035560;28;20199;-79
2022/04/27 08:50:38;;;;;;;10.80;7.13;;;;;;;9.61;100.00;96801.88;5018241;28;20021;-79
2022/04/27 08:53:04;;;;;;;11.63;8.93;;;;;;;9.45;100.00;96806.88;5035913;28;20025;-79
2022/04/27 08:55:35;;;;;;;11.27;7.67;;;;;;;9.11;100.00;96817.75;5034815;28;20068;-79
2022/04/27 08:58:14;;;;;;;10.27;7.30;;;;;;;9.29;100.00;96810.06;5034623;28;20045;-78
2022/04/27 09:00:42;;;;;;;10.53;7.23;;;;;;;9.15;100.00;96818.31;5002684;28;20485;-79
2022/04/27 09:03:34;;;;;;;9.60;6.83;;;;;;;9.38;100.00;96813.63;5034623;28;20060;-79
2022/04/27 09:06:10;;;;;;;15.87;11.43;;;;;;;9.72;100.00;96808.78;5035072;28;20036;-79
2022/04/27 09:08:43;;;;;;;14.90;10.67;;;;;;;9.66;100.00;96815.44;5034035;28;20125;-79
2022/04/27 09:11:26;;;;;;;9.13;6.50;;;;;;;9.23;100.00;96820.28;5018442;28;20033;-80
2022/04/27 09:13:57;;;;;;;23.77;16.97;;;;;;;9.59;100.00;96827.47;5033813;28;20038;-78
2022/04/27 09:20:46;;;;;;;33.53;20.97;;;;;;;9.59;100.00;96822.22;5035029;28;20033;-80
2022/04/27 09:21:59;;;;;;;8.87;5.47;;;;;;;9.03;100.00;96822.84;5036113;28;20042;-79
2022/04/27 09:24:46;;;;;;;13.13;5.57;;;;;;;9.32;100.00;96832.56;5018876;28;20061;-78
2022/04/27 09:27:12;;;;;;;20.03;13.03;;;;;;;9.42;100.00;96829.00;5031862;28;20030;-79
2022/04/27 09:29:37;;;;;;;15.37;10.23;;;;;;;9.36;100.00;96839.22;5036773;28;20367;-80
2022/04/27 09:32:06;;;;;;;7.13;5.10;;;;;;;9.32;100.00;96833.41;5027192;28;20513;-79
2022/04/27 09:34:43;;;;;;;8.47;5.93;;;;;;;9.22;100.00;96829.91;5034714;28;20027;-79
2022/04/27 09:37:17;;;;;;;12.43;7.80;;;;;;;9.44;100.00;96834.09;5036478;28;20026;-80
2022/04/27 09:39:44;;;;;;;27.50;16.40;;;;;;;9.49;100.00;96834.53;5017805;28;20048;-79
2022/04/27 09:42:10;;;;;;;68.53;36.07;;;;;;;9.65;100.00;96831.31;5034199;28;20505;-79
2022/04/27 09:44:38;;;;;;;23.80;15.57;;;;;;;10.23;100.00;96812.00;5033623;28;20033;-79
2022/04/27 09:47:06;;;;;;;13.87;7.77;;;;;;;10.44;100.00;96819.75;5034840;28;20037;-79
2022/04/27 09:49:34;;;;;;;10.37;7.23;;;;;;;10.88;100.00;96820.78;5018900;28;20486;-79
2022/04/27 09:52:01;;;;;;;8.20;6.13;;;;;;;10.66;100.00;96824.63;5018893;28;20029;-80
2022/04/27 09:54:29;;;;;;;8.67;6.07;;;;;;;10.28;100.00;96822.97;5032624;28;20394;-79
2022/04/27 09:56:57;;;;;;;8.60;6.53;;;;;;;10.01;100.00;96824.53;5017261;28;20033;-80
2022/04/27 09:59:29;;;;;;;8.40;5.80;;;;;;;10.33;100.00;96823.38;5033558;28;20060;-79
2022/04/27 10:01:58;;;;;;;9.85;6.93;;;;;;;10.38;100.00;96818.50;5035638;28;20037;-78
2022/04/27 10:04:28;;;;;;;7.80;5.37;;;;;;;10.84;100.00;96827.31;5033071;28;20045;-79
2022/04/27 10:06:58;;;;;;;12.00;6.97;;;;;;;10.69;100.00;96823.50;5024718;28;20049;-79
2022/04/27 10:09:27;;;;;;;9.40;6.10;;;;;;;10.37;100.00;96828.19;5032236;28;20045;-79
2022/04/27 10:12:01;;;;;;;9.70;6.33;;;;;;;10.26;100.00;96827.53;5033001;28;20063;-79
2022/04/27 10:14:28;;;;;;;8.53;6.40;;;;;;;9.79;100.00;96830.94;5033286;28;20033;-80
2022/04/27 10:16:54;;;;;;;8.43;5.93;;;;;;;10.17;100.00;96831.81;5031095;28;20056;-79
2022/04/27 10:19:21;;;;;;;9.23;6.80;;;;;;;10.61;100.00;96819.81;5034777;28;20037;-79
2022/04/27 10:21:57;;;;;;;8.67;6.43;;;;;;;11.29;100.00;96813.34;5034563;28;20414;-79
2022/04/27 10:24:38;;;;;;;9.77;6.83;;;;;;;12.90;100.00;96800.59;5018287;28;20136;-79
2022/04/27 10:27:18;;;;;;;11.07;7.90;;;;;;;14.02;88.43;96803.78;5047442;28;20029;-79
2022/04/27 10:29:51;;;;;;;9.70;7.33;;;;;;;15.18;79.04;96785.53;5034661;28;20505;-79
2022/04/27 10:32:37;;;;;;;10.20;7.25;;;;;;;15.24;84.60;96794.63;5036585;28;20037;-80
2022/04/27 10:35:12;;;;;;;8.03;6.57;;;;;;;14.13;85.70;96795.50;5019711;28;20109;-80
2022/04/27 10:37:52;;;;;;;10.13;7.00;;;;;;;15.54;72.13;96792.94;5003446;28;20045;-80
2022/04/27 10:40:42;;;;;;;11.23;8.82;;;;;;;15.81;71.83;96793.44;5028759;28;20025;-79
2022/04/27 10:43:24;;;;;;;9.27;7.60;;;;;;;15.07;74.54;96791.25;5032173;28;20041;-80
2022/04/27 10:45:49;;;;;;;9.80;7.60;;;;;;;16.75;64.75;96783.25;5027967;28;20414;-78
2022/04/27 10:48:24;;;;;;;9.40;7.43;;;;;;;16.53;61.90;96788.41;5016918;28;20048;-79
2022/04/27 10:51:08;;;;;;;9.88;7.65;;;;;;;15.64;61.45;96796.19;5025258;28;20521;-80
2022/04/27 10:53:41;;;;;;;8.70;6.60;;;;;;;15.67;64.12;96790.56;5034463;28;20034;-80
2022/04/27 10:56:23;;;;;;;;;;;;;;;14.93;66.14;96803.41;5034633;28;20189;-79
2022/04/27 10:58:49;;;;;;;7.78;5.70;;;;;;;13.81;69.14;96818.31;5026962;28;19913;-79
2022/04/27 11:01:19;;;;;;;9.82;7.55;;;;;;;13.02;78.21;96811.72;5017135;28;20140;-79
2022/04/27 11:03:59;;;;;;;9.55;7.30;;;;;;;13.48;74.53;96812.19;5033409;28;20508;-78
2022/04/27 11:06:26;;;;;;;11.25;7.63;;;;;;;13.60;76.43;96810.03;5008415;28;20045;-79
2022/04/27 11:09:22;;;;;;;12.50;9.10;;;;;;;13.52;73.29;96813.50;5025035;28;20026;-79
2022/04/27 11:11:53;;;;;;;10.90;8.15;;;;;;;12.79;82.66;96815.91;5011020;28;20033;-79
2022/04/27 11:14:29;;;;;;;10.43;7.47;;;;;;;13.20;89.18;96814.22;5033260;28;20040;-79
2022/04/27 11:16:55;;;;;;;13.70;10.17;;;;;;;13.08;82.75;96810.25;5033435;28;20076;-80
2022/04/27 11:19:21;;;;;;;11.40;9.33;;;;;;;13.08;86.61;96816.34;5015596;28;20036;-80
2022/04/27 11:21:48;;;;;;;12.37;8.70;;;;;;;13.03;84.92;96813.34;5010047;28;20030;-80
2022/04/27 11:24:15;;;;;;;11.40;8.97;;;;;;;12.91;82.43;96798.78;5031256;28;20047;-80
2022/04/27 11:26:46;;;;;;;13.07;9.30;;;;;;;12.91;85.46;96819.91;5016686;28;20029;-80
2022/04/27 11:29:13;;;;;;;11.17;8.23;;;;;;;12.73;84.21;96812.09;5016929;28;20509;-78
2022/04/27 11:31:40;;;;;;;11.47;8.70;;;;;;;12.61;84.45;96813.34;5017227;28;20461;-79
2022/04/27 11:34:26;;;;;;;13.43;10.27;;;;;;;12.47;89.93;96820.03;5033065;28;20092;-80
2022/04/27 11:36:54;;;;;;;13.73;9.50;;;;;;;12.57;88.91;96822.56;5016983;28;20034;-80
2022/04/27 11:39:24;;;;;;;12.43;9.23;;;;;;;12.47;87.31;96823.53;5031371;28;20044;-80
2022/04/27 11:42:02;;;;;;;10.87;8.37;;;;;;;12.64;85.40;96820.94;5028007;28;20049;-79
2022/04/27 11:44:29;;;;;;;10.73;8.77;;;;;;;12.80;81.75;96805.19;5016674;28;20141;-80
2022/04/27 11:46:56;;;;;;;10.97;8.30;;;;;;;13.04;78.60;96814.19;5016160;28;20091;-79
2022/04/27 11:49:23;;;;;;;12.40;8.93;;;;;;;12.73;78.78;96820.00;5034097;28;20549;-79
2022/04/27 11:51:49;;;;;;;10.50;8.30;;;;;;;12.81;78.64;96814.78;5012463;28;20030;-79
2022/04/27 11:54:29;;;;;;;11.63;8.43;;;;;;;13.05;77.09;96818.50;5013077;28;20052;-79
2022/04/27 11:57:03;;;;;;;12.80;8.57;;;;;;;13.39;77.44;96808.69;5030532;28;20409;-79
2022/04/27 11:59:42;;;;;;;14.77;9.00;;;;;;;15.32;66.10;96807.81;5030759;28;20030;-80